Aviation Digital Data Service (ADDS)

Output produced by METARs form (1200 UTC 16 July 2019)
found at http://www.aviationweather.gov/metar/data/
 
TAF RJAA 161105Z 1612/1718 02008KT 6000 -SHRA FEW005 BKN008 
     TEMPO 1612/1620 3000 SHRA BR FEW002 BKN004 
     TEMPO 1620/1700 3000 BR FEW002 BKN004 
     BECMG 1700/1703 14008KT FEW010 BKN020 
     TEMPO 1712/1718 3000 BR FEW004 BKN008